createdAt,value
2023-04-20T00:02:05.093Z,2.17
2023-04-20T00:05:08.893Z,2.03
2023-04-20T00:08:11.548Z,2.23
2023-04-20T00:11:15.533Z,2.70
2023-04-20T00:14:18.196Z,2.03
2023-04-20T00:17:20.914Z,2.17
2023-04-20T00:20:24.495Z,2.10
2023-04-20T00:23:27.113Z,2.10
2023-04-20T00:26:31.195Z,2.40
2023-04-20T00:29:34.228Z,2.00
2023-04-20T00:32:36.852Z,2.40
2023-04-20T00:35:39.504Z,2.10
2023-04-20T00:38:42.200Z,2.50
2023-04-20T00:41:46.236Z,2.30
2023-04-20T00:44:50.384Z,2.50
2023-04-20T00:47:52.992Z,2.70
2023-04-20T00:50:56.077Z,2.53
2023-04-20T00:53:59.235Z,2.40
2023-04-20T00:57:03.968Z,2.77
2023-04-20T01:00:08.197Z,2.40
2023-04-20T01:03:10.968Z,2.50
2023-04-20T01:06:14.679Z,2.40
2023-04-20T01:09:17.524Z,2.40
2023-04-20T01:12:22.117Z,2.53
2023-04-20T01:15:24.962Z,3.00
2023-04-20T01:18:27.715Z,2.60
2023-04-20T01:21:31.042Z,2.40
2023-04-20T01:24:35.129Z,2.97
2023-04-20T01:27:37.794Z,2.60
2023-04-20T01:30:40.482Z,2.80
2023-04-20T01:33:43.132Z,4.13
2023-04-20T01:36:46.190Z,3.10
2023-04-20T01:39:50.272Z,2.90
2023-04-20T01:42:52.960Z,2.80
2023-04-20T01:45:55.594Z,2.93
2023-04-20T01:48:58.268Z,2.57
2023-04-20T01:52:00.994Z,2.70
2023-04-20T01:55:05.422Z,2.50
2023-04-20T01:58:08.029Z,2.50
2023-04-20T02:01:10.708Z,2.50
2023-04-20T02:04:13.395Z,2.60
2023-04-20T02:07:16.045Z,2.67
2023-04-20T02:10:20.210Z,2.70
2023-04-20T02:13:22.879Z,2.60
2023-04-20T02:16:25.615Z,2.90
2023-04-20T02:19:28.282Z,2.60
2023-04-20T02:22:34.881Z,2.80
2023-04-20T02:25:39.228Z,2.73
2023-04-20T02:28:41.882Z,2.93
2023-04-20T02:31:44.691Z,3.00
2023-04-20T02:34:47.453Z,3.10
2023-04-20T02:37:50.160Z,2.70
2023-04-20T02:40:54.275Z,2.70
2023-04-20T02:43:56.899Z,2.47
2023-04-20T02:46:59.535Z,3.17
2023-04-20T02:50:02.263Z,3.00
2023-04-20T02:53:05.065Z,2.83
2023-04-20T02:56:09.169Z,3.33
2023-04-20T02:59:12.210Z,2.77
2023-04-20T03:02:15.025Z,2.47
2023-04-20T03:05:17.726Z,2.87
2023-04-20T03:08:20.812Z,2.80
2023-04-20T03:11:25.367Z,2.70
2023-04-20T03:14:28.065Z,3.03
2023-04-20T03:17:30.764Z,2.93
2023-04-20T03:20:33.487Z,2.97
2023-04-20T03:23:36.144Z,2.90
2023-04-20T03:26:40.356Z,3.30
2023-04-20T03:29:43.029Z,3.17
2023-04-20T03:32:45.746Z,3.17
2023-04-20T03:35:48.454Z,3.13
2023-04-20T03:38:51.094Z,3.90
2023-04-20T03:41:55.063Z,3.00
2023-04-20T03:44:57.803Z,3.27
2023-04-20T03:48:00.526Z,2.80
2023-04-20T03:51:03.204Z,3.00
2023-04-20T03:54:06.527Z,3.60
2023-04-20T03:57:10.548Z,3.20
2023-04-20T04:00:14.273Z,3.17
2023-04-20T04:03:17.295Z,2.73
2023-04-20T04:06:20.159Z,3.87
2023-04-20T04:09:22.819Z,3.60
2023-04-20T04:12:26.838Z,3.77
2023-04-20T04:15:29.520Z,2.87
2023-04-20T04:18:32.598Z,3.77
2023-04-20T04:21:35.577Z,3.43
2023-04-20T04:24:38.966Z,3.53
2023-04-20T04:27:43.178Z,3.50
2023-04-20T04:30:45.908Z,4.03
2023-04-20T04:33:49.554Z,3.53
2023-04-20T04:36:52.514Z,3.87
2023-04-20T04:39:55.382Z,3.87
2023-04-20T04:43:00.305Z,3.97
2023-04-20T04:46:07.950Z,3.97
2023-04-20T04:49:11.504Z,3.60
2023-04-20T04:52:14.609Z,3.50
2023-04-20T04:55:17.419Z,4.47
2023-04-20T04:58:21.457Z,4.10
2023-04-20T05:01:24.138Z,3.77
2023-04-20T05:04:26.869Z,3.77
2023-04-20T05:07:29.537Z,4.53
2023-04-20T05:10:32.221Z,3.73
2023-04-20T05:13:36.174Z,4.20
2023-04-20T05:16:38.929Z,3.83
2023-04-20T05:19:41.667Z,4.23
2023-04-20T05:22:44.621Z,4.50
2023-04-20T05:25:47.247Z,4.23
2023-04-20T05:28:51.482Z,4.43
2023-04-20T05:31:54.186Z,4.07
2023-04-20T05:34:58.181Z,4.53
2023-04-20T05:38:06.106Z,4.50
2023-04-20T05:41:08.780Z,4.43
2023-04-20T05:44:12.881Z,3.80
2023-04-20T05:47:15.945Z,4.43
2023-04-20T05:50:18.596Z,3.77
2023-04-20T05:53:21.708Z,4.43
2023-04-20T05:56:24.369Z,4.00
2023-04-20T05:59:28.539Z,4.17
2023-04-20T06:02:31.300Z,4.40
2023-04-20T06:05:34.245Z,4.17
2023-04-20T06:08:37.266Z,4.07
2023-04-20T06:11:39.961Z,4.37
2023-04-20T06:14:43.934Z,4.17
2023-04-20T06:17:46.677Z,4.37
2023-04-20T06:20:49.307Z,4.83
2023-04-20T06:23:51.934Z,4.77
2023-04-20T06:26:54.863Z,4.53
2023-04-20T06:29:58.885Z,4.50
2023-04-20T06:33:01.696Z,4.73
2023-04-20T06:36:07.756Z,4.83
2023-04-20T06:39:11.273Z,4.80
2023-04-20T06:42:15.974Z,4.70
2023-04-20T06:45:20.387Z,10.53
2023-04-20T06:48:30.860Z,4.73
2023-04-20T06:51:34.648Z,4.40
2023-04-20T06:54:37.298Z,4.47
2023-04-20T06:57:40.010Z,4.33
2023-04-20T07:00:44.181Z,5.33
2023-04-20T07:03:47.372Z,5.03
2023-04-20T07:06:53.777Z,4.60
2023-04-20T07:09:56.829Z,5.07
2023-04-20T07:12:59.447Z,5.10
2023-04-20T07:16:03.592Z,5.10
2023-04-20T07:19:06.291Z,4.80
2023-04-20T07:22:08.915Z,5.03
2023-04-20T07:25:11.903Z,4.93
2023-04-20T07:28:14.588Z,4.70
2023-04-20T07:31:18.653Z,5.33
2023-04-20T07:34:22.102Z,4.53
2023-04-20T07:37:27.195Z,4.73
2023-04-20T07:40:30.292Z,5.27
2023-04-20T07:43:32.959Z,5.37
2023-04-20T07:46:37.035Z,5.07
2023-04-20T07:49:40.835Z,5.80
2023-04-20T07:52:44.346Z,5.80
2023-04-20T07:55:47.769Z,5.10
2023-04-20T07:58:51.765Z,5.67
2023-04-20T08:02:01.212Z,5.13
2023-04-20T08:05:04.408Z,5.70
2023-04-20T08:08:07.564Z,5.30
2023-04-20T08:11:10.357Z,5.33
2023-04-20T08:14:13.285Z,5.67
2023-04-20T08:17:17.315Z,5.43
2023-04-20T08:20:20.243Z,5.53
2023-04-20T08:23:27.608Z,5.60
2023-04-20T08:26:30.285Z,5.50
2023-04-20T08:29:32.911Z,5.60
2023-04-20T08:32:36.934Z,6.10
2023-04-20T08:35:39.650Z,5.50
2023-04-20T08:38:42.312Z,5.47
2023-04-20T08:41:45.013Z,5.30
2023-04-20T08:44:47.667Z,5.40
2023-04-20T08:47:52.398Z,6.23
2023-04-20T08:50:55.845Z,6.43
2023-04-20T08:54:05.238Z,5.63
2023-04-20T08:57:07.996Z,6.17
2023-04-20T09:00:13.583Z,5.97
2023-04-20T09:03:18.479Z,5.60
2023-04-20T09:06:23.376Z,6.17
2023-04-20T09:09:27.015Z,5.77
2023-04-20T09:12:29.800Z,5.87
2023-04-20T09:15:33.127Z,5.97
2023-04-20T09:18:37.766Z,5.47
2023-04-20T09:21:49.773Z,5.73
2023-04-20T09:24:52.479Z,6.30
2023-04-20T09:27:59.080Z,5.73
2023-04-20T09:31:01.869Z,5.80
2023-04-20T09:34:05.876Z,6.33
2023-04-20T09:37:10.373Z,5.80
2023-04-20T09:40:15.155Z,6.27
2023-04-20T09:43:20.615Z,6.30
2023-04-20T09:46:23.803Z,6.43
2023-04-20T09:49:28.511Z,7.10
2023-04-20T09:52:31.771Z,6.07
2023-04-20T09:55:34.854Z,6.60
2023-04-20T09:58:38.849Z,6.40
2023-04-20T10:01:41.667Z,6.47
2023-04-20T10:04:55.038Z,6.70
2023-04-20T10:08:01.067Z,6.33
2023-04-20T10:11:03.744Z,6.00
2023-04-20T10:14:18.111Z,5.97
2023-04-20T10:17:31.586Z,6.30
2023-04-20T10:20:35.774Z,5.93
2023-04-20T10:23:49.013Z,5.60
2023-04-20T10:26:51.627Z,5.77
2023-04-20T10:29:54.364Z,5.37
2023-04-20T10:33:04.954Z,5.60
2023-04-20T10:36:09.116Z,6.30
2023-04-20T10:39:19.403Z,5.80
2023-04-20T10:42:22.443Z,6.23
2023-04-20T10:45:36.314Z,5.77
2023-04-20T10:48:39.110Z,5.70
2023-04-20T10:51:49.691Z,6.00
2023-04-20T10:54:52.380Z,5.67
2023-04-20T10:57:55.053Z,5.70
2023-04-20T11:01:02.504Z,5.30
2023-04-20T11:04:05.232Z,5.27
2023-04-20T11:07:11.090Z,5.10
2023-04-20T11:10:13.764Z,6.10
2023-04-20T11:13:25.266Z,5.70
2023-04-20T11:16:40.210Z,6.10
2023-04-20T11:19:47.813Z,6.20
2023-04-20T11:22:58.513Z,6.73
2023-04-20T11:26:01.144Z,6.17
2023-04-20T11:29:03.871Z,6.40
2023-04-20T11:32:08.441Z,6.63
2023-04-20T11:35:12.343Z,6.33
2023-04-20T11:38:18.744Z,6.10
2023-04-20T11:41:21.631Z,6.13
2023-04-20T11:44:24.511Z,6.00
2023-04-20T11:47:27.373Z,6.63
2023-04-20T11:50:30.278Z,6.53
2023-04-20T11:53:34.681Z,7.23
2023-04-20T11:56:38.038Z,6.63
2023-04-20T11:59:42.850Z,6.90
2023-04-20T12:02:45.706Z,6.63
2023-04-20T12:05:48.543Z,6.30
2023-04-20T12:08:52.646Z,6.83
2023-04-20T12:11:55.447Z,6.13
2023-04-20T12:14:58.129Z,6.20
2023-04-20T12:18:00.822Z,6.43
2023-04-20T12:21:03.459Z,5.90
2023-04-20T12:24:07.803Z,7.17
2023-04-20T12:27:10.919Z,6.40
2023-04-20T12:30:14.704Z,7.33
2023-04-20T12:33:17.493Z,6.67
2023-04-20T12:36:20.193Z,6.37
2023-04-20T12:39:24.775Z,7.30
2023-04-20T12:42:27.449Z,7.57
2023-04-20T12:45:31.056Z,7.47
2023-04-20T12:48:33.694Z,7.63
2023-04-20T12:51:36.376Z,8.47
2023-04-20T12:54:42.704Z,8.10
2023-04-20T12:57:46.537Z,7.87
2023-04-20T13:00:49.179Z,7.83
2023-04-20T13:03:52.182Z,8.07
2023-04-20T13:06:55.701Z,8.20
2023-04-20T13:10:00.782Z,8.17
2023-04-20T13:13:03.636Z,8.07
2023-04-20T13:16:06.987Z,8.57
2023-04-20T13:19:09.646Z,8.73
2023-04-20T13:22:15.743Z,8.93
2023-04-20T13:25:21.471Z,9.37
2023-04-20T13:28:25.576Z,8.40
2023-04-20T13:31:28.236Z,8.83
2023-04-20T13:34:30.937Z,8.63
2023-04-20T13:37:33.964Z,9.10
2023-04-20T13:40:38.020Z,9.37
2023-04-20T13:43:40.717Z,8.57
2023-04-20T13:46:44.344Z,8.93
2023-04-20T13:49:46.957Z,8.77
2023-04-20T13:52:50.345Z,8.07
2023-04-20T13:55:54.412Z,9.60
2023-04-20T13:58:57.052Z,8.70
2023-04-20T14:01:59.826Z,9.07
2023-04-20T14:05:03.888Z,8.80
2023-04-20T14:08:07.325Z,8.70
2023-04-20T14:11:11.571Z,8.83
2023-04-20T14:14:14.308Z,9.33
2023-04-20T14:17:16.971Z,8.90
2023-04-20T14:20:20.001Z,9.03
2023-04-20T14:23:22.698Z,9.37
2023-04-20T14:26:27.432Z,8.43
2023-04-20T14:29:30.283Z,8.77
2023-04-20T14:32:33.072Z,9.13
2023-04-20T14:35:35.736Z,8.83
2023-04-20T14:38:38.615Z,9.30
2023-04-20T14:41:42.631Z,8.87
2023-04-20T14:44:45.314Z,8.83
2023-04-20T14:47:48.009Z,9.53
2023-04-20T14:50:50.687Z,9.73
2023-04-20T14:53:53.341Z,9.20
2023-04-20T14:56:57.375Z,8.73
2023-04-20T15:00:00.008Z,9.53
2023-04-20T15:03:02.933Z,9.20
2023-04-20T15:06:05.962Z,8.73
2023-04-20T15:09:08.999Z,10.13
2023-04-20T15:12:13.048Z,9.87
2023-04-20T15:15:16.140Z,9.07
2023-04-20T15:18:19.765Z,9.60
2023-04-20T15:21:23.462Z,9.53
2023-04-20T15:24:26.062Z,9.33
2023-04-20T15:27:30.443Z,9.60
2023-04-20T15:30:33.281Z,9.23
2023-04-20T15:33:35.955Z,9.50
2023-04-20T15:36:38.604Z,9.13
2023-04-20T15:39:41.228Z,10.10
2023-04-20T15:42:45.211Z,9.17
2023-04-20T15:45:47.964Z,9.53
2023-04-20T15:48:50.693Z,9.40
2023-04-20T15:51:53.311Z,9.03
2023-04-20T15:54:55.974Z,9.60
2023-04-20T15:58:00.302Z,9.17
2023-04-20T16:01:03.698Z,8.73
2023-04-20T16:04:06.577Z,8.27
2023-04-20T16:07:09.849Z,9.30
2023-04-20T16:10:12.524Z,7.97
2023-04-20T16:13:16.496Z,8.80
2023-04-20T16:16:19.261Z,8.33
2023-04-20T16:19:22.024Z,8.40
2023-04-20T16:22:24.699Z,7.10
2023-04-20T16:25:28.348Z,7.90
2023-04-20T16:28:32.430Z,7.70
2023-04-20T16:31:36.699Z,7.40
2023-04-20T16:34:39.335Z,7.23
2023-04-20T16:37:42.080Z,7.97
2023-04-20T16:40:44.766Z,7.50
2023-04-20T16:43:48.802Z,7.03
2023-04-20T16:46:51.828Z,6.97
2023-04-20T16:49:54.497Z,7.33
2023-04-20T16:52:57.163Z,7.60
2023-04-20T16:55:59.875Z,7.53
2023-04-20T16:59:04.107Z,8.57
2023-04-20T17:02:06.845Z,6.80
2023-04-20T17:05:10.192Z,9.33
2023-04-20T17:08:13.030Z,8.00
2023-04-20T17:11:16.053Z,7.63
2023-04-20T17:14:20.494Z,8.03
2023-04-20T17:17:23.413Z,7.20
2023-04-20T17:20:26.147Z,7.73
2023-04-20T17:23:28.880Z,7.60
2023-04-20T17:26:31.486Z,8.70
2023-04-20T17:29:38.267Z,7.27
2023-04-20T17:32:41.021Z,7.63
2023-04-20T17:35:45.595Z,8.33
2023-04-20T17:38:48.267Z,6.90
2023-04-20T17:41:51.151Z,7.70
2023-04-20T17:44:55.166Z,7.20
2023-04-20T17:47:57.898Z,7.43
2023-04-20T17:51:00.623Z,7.83
2023-04-20T17:54:03.310Z,7.40
2023-04-20T17:57:06.875Z,7.70
2023-04-20T18:00:12.786Z,7.27
2023-04-20T18:03:15.683Z,7.73
2023-04-20T18:06:18.490Z,7.03
2023-04-20T18:09:21.191Z,7.70
2023-04-20T18:12:23.896Z,7.23
2023-04-20T18:15:28.020Z,7.00
2023-04-20T18:18:30.694Z,7.30
2023-04-20T18:21:34.661Z,7.97
2023-04-20T18:24:37.864Z,7.60
2023-04-20T18:27:40.640Z,7.43
2023-04-20T18:30:44.671Z,7.00
2023-04-20T18:33:47.319Z,7.30
2023-04-20T18:36:49.972Z,7.13
2023-04-20T18:39:52.565Z,7.20
2023-04-20T18:42:55.312Z,7.03
2023-04-20T18:45:59.400Z,13.13
2023-04-20T18:49:02.063Z,7.10
2023-04-20T18:52:12.111Z,10.00
2023-04-20T18:55:14.810Z,7.93
2023-04-20T18:58:17.457Z,7.97
2023-04-20T19:01:21.507Z,7.03
2023-04-20T19:04:24.268Z,6.80
2023-04-20T19:07:26.990Z,7.57
2023-04-20T19:10:29.629Z,7.73
2023-04-20T19:13:32.325Z,7.37
2023-04-20T19:16:36.531Z,7.40
2023-04-20T19:19:39.252Z,8.20
2023-04-20T19:22:41.874Z,7.47
2023-04-20T19:25:44.622Z,7.13
2023-04-20T19:28:47.274Z,7.03
2023-04-20T19:31:51.666Z,7.17
2023-04-20T19:34:57.306Z,7.73
2023-04-20T19:38:00.341Z,7.63
2023-04-20T19:41:03.026Z,7.27
2023-04-20T19:44:06.386Z,7.53
2023-04-20T19:47:10.526Z,7.73
2023-04-20T19:50:13.912Z,7.37
2023-04-20T19:53:16.594Z,7.73
2023-04-20T19:56:19.382Z,8.17
2023-04-20T19:59:22.042Z,8.13
2023-04-20T20:02:26.437Z,8.33
2023-04-20T20:05:29.342Z,8.27
2023-04-20T20:08:32.231Z,8.47
2023-04-20T20:11:34.883Z,8.07
2023-04-20T20:14:37.858Z,7.70
2023-04-20T20:17:41.980Z,8.07
2023-04-20T20:20:44.693Z,8.17
2023-04-20T20:23:47.409Z,7.97
2023-04-20T20:26:50.064Z,7.80
2023-04-20T20:29:52.698Z,8.23
2023-04-20T20:32:58.755Z,8.80
2023-04-20T20:36:03.525Z,7.63
2023-04-20T20:39:06.633Z,7.60
2023-04-20T20:42:10.253Z,10.40
2023-04-20T20:45:13.829Z,7.90
2023-04-20T20:48:17.862Z,8.03
2023-04-20T20:51:20.497Z,8.20
2023-04-20T20:54:23.460Z,7.77
2023-04-20T20:57:26.069Z,7.93
2023-04-20T21:00:28.736Z,8.37
2023-04-20T21:03:33.063Z,7.63
2023-04-20T21:06:36.075Z,8.00
2023-04-20T21:09:38.736Z,7.87
2023-04-20T21:12:41.382Z,7.30
2023-04-20T21:15:44.045Z,8.00
2023-04-20T21:18:48.038Z,8.87
2023-04-20T21:21:50.775Z,7.60
2023-04-20T21:24:53.380Z,8.43
2023-04-20T21:27:56.048Z,7.57
2023-04-20T21:30:58.663Z,7.33
2023-04-20T21:34:02.719Z,7.40
2023-04-20T21:37:05.733Z,8.47
2023-04-20T21:40:10.072Z,8.10
2023-04-20T21:43:12.781Z,7.53
2023-04-20T21:46:15.795Z,7.90
2023-04-20T21:49:20.282Z,7.60
2023-04-20T21:52:23.953Z,7.33
2023-04-20T21:55:26.817Z,7.10
2023-04-20T21:58:29.448Z,8.00
2023-04-20T22:01:32.238Z,7.70
2023-04-20T22:04:36.384Z,8.37
2023-04-20T22:07:39.308Z,8.03
2023-04-20T22:10:42.006Z,7.67
2023-04-20T22:13:45.287Z,7.47
2023-04-20T22:16:47.958Z,7.80
2023-04-20T22:19:51.959Z,7.63
2023-04-20T22:22:54.641Z,8.00
2023-04-20T22:25:57.275Z,7.53
2023-04-20T22:28:59.919Z,7.90
2023-04-20T22:32:02.801Z,7.87
2023-04-20T22:35:07.713Z,7.47
2023-04-20T22:38:10.490Z,7.73
2023-04-20T22:41:14.355Z,7.07
2023-04-20T22:44:18.593Z,7.33
2023-04-20T22:47:21.309Z,7.73
2023-04-20T22:50:25.664Z,7.63
2023-04-20T22:53:29.731Z,8.03
2023-04-20T22:56:33.311Z,8.37
2023-04-20T22:59:35.961Z,7.97
2023-04-20T23:02:38.912Z,7.20
2023-04-20T23:05:44.298Z,8.47
2023-04-20T23:08:46.947Z,7.70
2023-04-20T23:11:49.644Z,7.13
2023-04-20T23:14:53.808Z,7.63
2023-04-20T23:17:57.203Z,7.77
2023-04-20T23:21:01.688Z,8.50
2023-04-20T23:24:04.577Z,8.27
2023-04-20T23:27:07.243Z,7.97
2023-04-20T23:30:10.667Z,8.20
2023-04-20T23:33:13.369Z,7.83
2023-04-20T23:36:17.498Z,8.57
2023-04-20T23:39:20.547Z,7.57
2023-04-20T23:42:23.386Z,8.10
2023-04-20T23:45:26.257Z,8.43
2023-04-20T23:48:28.935Z,8.50
2023-04-20T23:51:32.942Z,8.90
2023-04-20T23:54:35.616Z,7.73
2023-04-20T23:57:38.331Z,7.73
